sensor_id;sensor_type;location;lat;lon;timestamp;P1;durP1;ratioP1;P2;durP2;ratioP2
15295;SDS011;7749;49.964;7.890;2022-10-31T00:01:26;10.77;;;4.77;;
15295;SDS011;7749;49.964;7.890;2022-10-31T00:04:02;10.50;;;4.47;;
15295;SDS011;7749;49.964;7.890;2022-10-31T00:06:30;9.43;;;4.47;;
15295;SDS011;7749;49.964;7.890;2022-10-31T00:08:59;7.53;;;4.50;;
15295;SDS011;7749;49.964;7.890;2022-10-31T00:11:28;10.03;;;4.90;;
15295;SDS011;7749;49.964;7.890;2022-10-31T00:13:56;11.93;;;4.70;;
15295;SDS011;7749;49.964;7.890;2022-10-31T00:16:26;10.33;;;4.50;;
15295;SDS011;7749;49.964;7.890;2022-10-31T00:18:56;11.17;;;4.83;;
15295;SDS011;7749;49.964;7.890;2022-10-31T00:21:29;9.47;;;4.43;;
15295;SDS011;7749;49.964;7.890;2022-10-31T00:23:58;9.37;;;4.73;;
15295;SDS011;7749;49.964;7.890;2022-10-31T00:26:27;11.67;;;4.67;;
15295;SDS011;7749;49.964;7.890;2022-10-31T00:28:56;10.70;;;4.40;;
15295;SDS011;7749;49.964;7.890;2022-10-31T00:31:27;9.23;;;4.47;;
15295;SDS011;7749;49.964;7.890;2022-10-31T00:33:55;9.00;;;4.50;;
15295;SDS011;7749;49.964;7.890;2022-10-31T00:36:24;12.50;;;5.07;;
15295;SDS011;7749;49.964;7.890;2022-10-31T00:38:52;9.27;;;5.40;;
15295;SDS011;7749;49.964;7.890;2022-10-31T00:41:20;13.00;;;4.90;;
15295;SDS011;7749;49.964;7.890;2022-10-31T00:43:48;8.37;;;5.07;;
15295;SDS011;7749;49.964;7.890;2022-10-31T00:46:15;14.03;;;4.80;;
15295;SDS011;7749;49.964;7.890;2022-10-31T00:48:43;11.93;;;4.33;;
15295;SDS011;7749;49.964;7.890;2022-10-31T00:51:11;11.87;;;6.80;;
15295;SDS011;7749;49.964;7.890;2022-10-31T00:53:39;16.67;;;7.50;;
15295;SDS011;7749;49.964;7.890;2022-10-31T00:56:06;10.57;;;7.03;;
15295;SDS011;7749;49.964;7.890;2022-10-31T00:58:34;14.03;;;5.73;;
15295;SDS011;7749;49.964;7.890;2022-10-31T01:01:02;7.27;;;5.83;;
15295;SDS011;7749;49.964;7.890;2022-10-31T01:03:31;9.47;;;5.97;;
15295;SDS011;7749;49.964;7.890;2022-10-31T01:08:37;10.90;;;5.57;;
15295;SDS011;7749;49.964;7.890;2022-10-31T01:13:44;9.53;;;4.97;;
15295;SDS011;7749;49.964;7.890;2022-10-31T01:16:16;10.13;;;4.23;;
15295;SDS011;7749;49.964;7.890;2022-10-31T01:18:45;12.57;;;5.43;;
15295;SDS011;7749;49.964;7.890;2022-10-31T01:21:17;11.40;;;4.70;;
15295;SDS011;7749;49.964;7.890;2022-10-31T01:23:46;9.03;;;4.10;;
15295;SDS011;7749;49.964;7.890;2022-10-31T01:26:15;9.97;;;4.50;;
15295;SDS011;7749;49.964;7.890;2022-10-31T01:28:52;12.33;;;4.47;;
15295;SDS011;7749;49.964;7.890;2022-10-31T01:31:22;8.50;;;4.00;;
15295;SDS011;7749;49.964;7.890;2022-10-31T01:33:51;9.80;;;4.53;;
15295;SDS011;7749;49.964;7.890;2022-10-31T01:38:59;9.93;;;4.70;;
15295;SDS011;7749;49.964;7.890;2022-10-31T01:41:31;12.90;;;4.90;;
15295;SDS011;7749;49.964;7.890;2022-10-31T01:44:02;13.23;;;4.97;;
15295;SDS011;7749;49.964;7.890;2022-10-31T01:46:54;13.00;;;5.07;;
15295;SDS011;7749;49.964;7.890;2022-10-31T01:49:46;9.07;;;4.43;;
15295;SDS011;7749;49.964;7.890;2022-10-31T01:54:56;12.80;;;6.70;;
15295;SDS011;7749;49.964;7.890;2022-10-31T01:57:28;17.10;;;8.10;;
15295;SDS011;7749;49.964;7.890;2022-10-31T01:59:58;13.30;;;7.73;;
15295;SDS011;7749;49.964;7.890;2022-10-31T02:02:29;12.07;;;7.80;;
15295;SDS011;7749;49.964;7.890;2022-10-31T02:04:59;11.67;;;7.10;;
15295;SDS011;7749;49.964;7.890;2022-10-31T02:07:34;12.13;;;6.23;;
15295;SDS011;7749;49.964;7.890;2022-10-31T02:10:06;9.90;;;5.70;;
15295;SDS011;7749;49.964;7.890;2022-10-31T02:12:34;10.23;;;6.53;;
15295;SDS011;7749;49.964;7.890;2022-10-31T02:15:05;11.27;;;6.87;;
15295;SDS011;7749;49.964;7.890;2022-10-31T02:17:33;12.67;;;6.43;;
15295;SDS011;7749;49.964;7.890;2022-10-31T02:22:39;10.97;;;6.97;;
15295;SDS011;7749;49.964;7.890;2022-10-31T02:31:42;11.53;;;6.77;;
15295;SDS011;7749;49.964;7.890;2022-10-31T02:34:22;10.10;;;6.57;;
15295;SDS011;7749;49.964;7.890;2022-10-31T02:45:00;9.63;;;6.10;;
15295;SDS011;7749;49.964;7.890;2022-10-31T02:47:32;11.20;;;5.50;;
15295;SDS011;7749;49.964;7.890;2022-10-31T02:52:49;12.83;;;6.13;;
15295;SDS011;7749;49.964;7.890;2022-10-31T02:57:53;12.97;;;6.07;;
15295;SDS011;7749;49.964;7.890;2022-10-31T03:00:24;11.17;;;5.67;;
15295;SDS011;7749;49.964;7.890;2022-10-31T03:05:31;9.17;;;5.47;;
15295;SDS011;7749;49.964;7.890;2022-10-31T03:16:00;9.97;;;5.00;;
15295;SDS011;7749;49.964;7.890;2022-10-31T03:18:50;8.77;;;5.17;;
15295;SDS011;7749;49.964;7.890;2022-10-31T03:21:41;8.57;;;5.13;;
15295;SDS011;7749;49.964;7.890;2022-10-31T03:24:19;8.77;;;5.17;;
15295;SDS011;7749;49.964;7.890;2022-10-31T03:26:50;7.63;;;5.23;;
15295;SDS011;7749;49.964;7.890;2022-10-31T03:29:21;9.97;;;5.50;;
15295;SDS011;7749;49.964;7.890;2022-10-31T03:31:52;11.27;;;5.40;;
15295;SDS011;7749;49.964;7.890;2022-10-31T03:34:25;10.77;;;5.50;;
15295;SDS011;7749;49.964;7.890;2022-10-31T03:36:55;8.87;;;4.87;;
15295;SDS011;7749;49.964;7.890;2022-10-31T03:39:25;8.67;;;4.80;;
15295;SDS011;7749;49.964;7.890;2022-10-31T03:41:58;8.83;;;4.80;;
15295;SDS011;7749;49.964;7.890;2022-10-31T03:44:32;9.77;;;5.47;;
15295;SDS011;7749;49.964;7.890;2022-10-31T03:47:02;16.87;;;7.50;;
15295;SDS011;7749;49.964;7.890;2022-10-31T03:49:31;18.17;;;10.77;;
15295;SDS011;7749;49.964;7.890;2022-10-31T03:52:02;20.00;;;10.87;;
15295;SDS011;7749;49.964;7.890;2022-10-31T03:54:53;15.57;;;8.47;;
15295;SDS011;7749;49.964;7.890;2022-10-31T04:00:14;20.58;;;10.57;;
15295;SDS011;7749;49.964;7.890;2022-10-31T04:02:49;15.90;;;9.97;;
15295;SDS011;7749;49.964;7.890;2022-10-31T04:05:27;14.87;;;9.50;;
15295;SDS011;7749;49.964;7.890;2022-10-31T04:07:58;13.47;;;8.80;;
15295;SDS011;7749;49.964;7.890;2022-10-31T04:10:27;12.20;;;7.23;;
15295;SDS011;7749;49.964;7.890;2022-10-31T04:13:09;10.93;;;6.33;;
15295;SDS011;7749;49.964;7.890;2022-10-31T04:15:41;16.83;;;9.90;;
15295;SDS011;7749;49.964;7.890;2022-10-31T04:18:10;9.63;;;7.37;;
15295;SDS011;7749;49.964;7.890;2022-10-31T04:20:39;13.77;;;7.40;;
15295;SDS011;7749;49.964;7.890;2022-10-31T04:23:25;9.33;;;6.50;;
15295;SDS011;7749;49.964;7.890;2022-10-31T04:25:53;11.97;;;5.80;;
15295;SDS011;7749;49.964;7.890;2022-10-31T04:28:21;13.63;;;6.17;;
15295;SDS011;7749;49.964;7.890;2022-10-31T04:30:49;8.60;;;5.47;;
15295;SDS011;7749;49.964;7.890;2022-10-31T04:33:17;7.57;;;6.10;;
15295;SDS011;7749;49.964;7.890;2022-10-31T04:35:45;13.13;;;6.50;;
15295;SDS011;7749;49.964;7.890;2022-10-31T04:38:19;10.92;;;6.04;;
15295;SDS011;7749;49.964;7.890;2022-10-31T04:40:47;11.50;;;6.27;;
15295;SDS011;7749;49.964;7.890;2022-10-31T04:43:14;8.67;;;5.73;;
15295;SDS011;7749;49.964;7.890;2022-10-31T04:45:42;11.03;;;6.03;;
15295;SDS011;7749;49.964;7.890;2022-10-31T04:48:10;12.97;;;7.20;;
15295;SDS011;7749;49.964;7.890;2022-10-31T04:50:38;15.23;;;7.00;;
15295;SDS011;7749;49.964;7.890;2022-10-31T04:53:05;8.47;;;5.50;;
15295;SDS011;7749;49.964;7.890;2022-10-31T04:55:34;12.97;;;5.93;;
15295;SDS011;7749;49.964;7.890;2022-10-31T04:58:02;10.20;;;5.47;;
15295;SDS011;7749;49.964;7.890;2022-10-31T05:00:31;11.20;;;5.77;;
15295;SDS011;7749;49.964;7.890;2022-10-31T05:02:59;8.03;;;5.17;;
15295;SDS011;7749;49.964;7.890;2022-10-31T05:05:28;11.77;;;6.20;;
15295;SDS011;7749;49.964;7.890;2022-10-31T05:07:57;9.93;;;5.87;;
15295;SDS011;7749;49.964;7.890;2022-10-31T05:10:26;13.10;;;6.83;;
15295;SDS011;7749;49.964;7.890;2022-10-31T05:12:57;11.47;;;6.37;;
15295;SDS011;7749;49.964;7.890;2022-10-31T05:15:27;9.77;;;5.80;;
15295;SDS011;7749;49.964;7.890;2022-10-31T05:17:55;11.33;;;5.97;;
15295;SDS011;7749;49.964;7.890;2022-10-31T05:20:24;9.73;;;5.73;;
15295;SDS011;7749;49.964;7.890;2022-10-31T05:22:55;9.93;;;5.27;;
15295;SDS011;7749;49.964;7.890;2022-10-31T05:25:24;8.30;;;5.70;;
15295;SDS011;7749;49.964;7.890;2022-10-31T05:27:54;8.67;;;5.30;;
15295;SDS011;7749;49.964;7.890;2022-10-31T05:30:27;12.20;;;6.73;;
15295;SDS011;7749;49.964;7.890;2022-10-31T05:32:56;10.33;;;6.63;;
15295;SDS011;7749;49.964;7.890;2022-10-31T05:35:29;9.97;;;5.73;;
15295;SDS011;7749;49.964;7.890;2022-10-31T05:37:58;11.23;;;6.43;;
15295;SDS011;7749;49.964;7.890;2022-10-31T05:40:27;11.40;;;5.70;;
15295;SDS011;7749;49.964;7.890;2022-10-31T05:42:55;10.87;;;5.90;;
15295;SDS011;7749;49.964;7.890;2022-10-31T05:45:26;8.23;;;6.23;;
15295;SDS011;7749;49.964;7.890;2022-10-31T05:47:54;12.10;;;6.90;;
15295;SDS011;7749;49.964;7.890;2022-10-31T05:50:28;11.77;;;6.93;;
15295;SDS011;7749;49.964;7.890;2022-10-31T05:52:58;9.77;;;6.20;;
15295;SDS011;7749;49.964;7.890;2022-10-31T05:55:31;11.47;;;6.03;;
15295;SDS011;7749;49.964;7.890;2022-10-31T05:57:59;10.73;;;6.03;;
15295;SDS011;7749;49.964;7.890;2022-10-31T06:00:27;15.77;;;7.17;;
15295;SDS011;7749;49.964;7.890;2022-10-31T06:02:59;8.13;;;5.77;;
15295;SDS011;7749;49.964;7.890;2022-10-31T06:05:28;8.67;;;6.83;;
15295;SDS011;7749;49.964;7.890;2022-10-31T06:07:56;7.83;;;5.73;;
15295;SDS011;7749;49.964;7.890;2022-10-31T06:10:25;10.07;;;6.17;;
15295;SDS011;7749;49.964;7.890;2022-10-31T06:12:53;10.80;;;5.97;;
15295;SDS011;7749;49.964;7.890;2022-10-31T06:15:21;11.80;;;6.60;;
15295;SDS011;7749;49.964;7.890;2022-10-31T06:18:00;11.53;;;6.27;;
15295;SDS011;7749;49.964;7.890;2022-10-31T06:20:30;9.10;;;6.23;;
15295;SDS011;7749;49.964;7.890;2022-10-31T06:22:59;10.53;;;6.07;;
15295;SDS011;7749;49.964;7.890;2022-10-31T06:25:27;10.40;;;6.30;;
15295;SDS011;7749;49.964;7.890;2022-10-31T06:27:55;9.13;;;5.90;;
15295;SDS011;7749;49.964;7.890;2022-10-31T06:30:24;7.83;;;6.10;;
15295;SDS011;7749;49.964;7.890;2022-10-31T06:32:52;11.53;;;6.17;;
15295;SDS011;7749;49.964;7.890;2022-10-31T06:35:20;12.83;;;7.90;;
15295;SDS011;7749;49.964;7.890;2022-10-31T06:37:51;8.27;;;5.83;;
15295;SDS011;7749;49.964;7.890;2022-10-31T06:40:20;12.00;;;6.53;;
15295;SDS011;7749;49.964;7.890;2022-10-31T06:42:58;12.03;;;6.03;;
15295;SDS011;7749;49.964;7.890;2022-10-31T06:45:27;10.27;;;6.07;;
15295;SDS011;7749;49.964;7.890;2022-10-31T06:47:55;12.67;;;6.63;;
15295;SDS011;7749;49.964;7.890;2022-10-31T06:50:42;9.70;;;5.73;;
15295;SDS011;7749;49.964;7.890;2022-10-31T06:53:10;7.73;;;5.23;;
15295;SDS011;7749;49.964;7.890;2022-10-31T06:55:39;12.60;;;6.10;;
15295;SDS011;7749;49.964;7.890;2022-10-31T06:58:08;10.57;;;5.97;;
15295;SDS011;7749;49.964;7.890;2022-10-31T07:00:37;11.90;;;6.60;;
15295;SDS011;7749;49.964;7.890;2022-10-31T07:03:06;11.40;;;5.93;;
15295;SDS011;7749;49.964;7.890;2022-10-31T07:05:38;12.10;;;6.07;;
15295;SDS011;7749;49.964;7.890;2022-10-31T07:08:07;10.17;;;5.97;;
15295;SDS011;7749;49.964;7.890;2022-10-31T07:10:37;9.07;;;5.80;;
15295;SDS011;7749;49.964;7.890;2022-10-31T07:13:11;10.83;;;6.33;;
15295;SDS011;7749;49.964;7.890;2022-10-31T07:15:40;9.63;;;6.23;;
15295;SDS011;7749;49.964;7.890;2022-10-31T07:18:10;12.53;;;5.97;;
15295;SDS011;7749;49.964;7.890;2022-10-31T07:20:39;10.70;;;5.80;;
15295;SDS011;7749;49.964;7.890;2022-10-31T07:23:07;7.27;;;5.00;;
15295;SDS011;7749;49.964;7.890;2022-10-31T07:25:37;9.87;;;5.27;;
15295;SDS011;7749;49.964;7.890;2022-10-31T07:28:05;12.00;;;7.00;;
15295;SDS011;7749;49.964;7.890;2022-10-31T07:30:33;8.57;;;6.83;;
15295;SDS011;7749;49.964;7.890;2022-10-31T07:33:01;13.27;;;7.37;;
15295;SDS011;7749;49.964;7.890;2022-10-31T07:35:29;14.00;;;7.67;;
15295;SDS011;7749;49.964;7.890;2022-10-31T07:37:58;14.33;;;8.10;;
15295;SDS011;7749;49.964;7.890;2022-10-31T07:40:34;15.70;;;8.90;;
15295;SDS011;7749;49.964;7.890;2022-10-31T07:43:01;13.87;;;8.40;;
15295;SDS011;7749;49.964;7.890;2022-10-31T07:45:29;9.77;;;7.33;;
15295;SDS011;7749;49.964;7.890;2022-10-31T07:47:57;13.93;;;8.47;;
15295;SDS011;7749;49.964;7.890;2022-10-31T07:50:26;11.07;;;7.70;;
15295;SDS011;7749;49.964;7.890;2022-10-31T07:53:11;13.47;;;8.10;;
15295;SDS011;7749;49.964;7.890;2022-10-31T07:55:40;11.40;;;7.57;;
15295;SDS011;7749;49.964;7.890;2022-10-31T07:58:21;14.20;;;7.93;;
15295;SDS011;7749;49.964;7.890;2022-10-31T08:00:48;12.17;;;7.50;;
15295;SDS011;7749;49.964;7.890;2022-10-31T08:03:17;8.13;;;6.10;;
15295;SDS011;7749;49.964;7.890;2022-10-31T08:05:46;12.33;;;7.23;;
15295;SDS011;7749;49.964;7.890;2022-10-31T08:08:14;10.30;;;6.43;;
15295;SDS011;7749;49.964;7.890;2022-10-31T08:10:42;8.47;;;6.33;;
15295;SDS011;7749;49.964;7.890;2022-10-31T08:13:11;10.87;;;6.33;;
15295;SDS011;7749;49.964;7.890;2022-10-31T08:15:40;10.33;;;6.43;;
15295;SDS011;7749;49.964;7.890;2022-10-31T08:18:11;10.03;;;6.70;;
15295;SDS011;7749;49.964;7.890;2022-10-31T08:20:40;10.00;;;6.93;;
15295;SDS011;7749;49.964;7.890;2022-10-31T08:23:11;13.87;;;7.10;;
15295;SDS011;7749;49.964;7.890;2022-10-31T08:25:39;16.20;;;7.63;;
15295;SDS011;7749;49.964;7.890;2022-10-31T08:28:10;16.97;;;6.43;;
15295;SDS011;7749;49.964;7.890;2022-10-31T08:30:39;9.70;;;6.27;;
15295;SDS011;7749;49.964;7.890;2022-10-31T08:33:14;12.10;;;5.47;;
15295;SDS011;7749;49.964;7.890;2022-10-31T08:35:44;14.73;;;5.90;;
15295;SDS011;7749;49.964;7.890;2022-10-31T08:38:12;10.73;;;5.87;;
15295;SDS011;7749;49.964;7.890;2022-10-31T08:40:41;11.83;;;6.00;;
15295;SDS011;7749;49.964;7.890;2022-10-31T08:43:11;12.80;;;6.37;;
15295;SDS011;7749;49.964;7.890;2022-10-31T08:45:40;10.07;;;6.30;;
15295;SDS011;7749;49.964;7.890;2022-10-31T08:48:12;9.00;;;6.70;;
15295;SDS011;7749;49.964;7.890;2022-10-31T08:50:41;14.60;;;6.80;;
15295;SDS011;7749;49.964;7.890;2022-10-31T08:53:10;13.20;;;6.00;;
15295;SDS011;7749;49.964;7.890;2022-10-31T08:55:40;11.60;;;6.57;;
15295;SDS011;7749;49.964;7.890;2022-10-31T08:58:10;11.43;;;6.37;;
15295;SDS011;7749;49.964;7.890;2022-10-31T09:00:39;13.27;;;6.93;;
15295;SDS011;7749;49.964;7.890;2022-10-31T09:03:13;11.23;;;6.67;;
15295;SDS011;7749;49.964;7.890;2022-10-31T09:05:42;11.70;;;6.77;;
15295;SDS011;7749;49.964;7.890;2022-10-31T09:08:10;11.63;;;6.73;;
15295;SDS011;7749;49.964;7.890;2022-10-31T09:10:43;10.67;;;7.27;;
15295;SDS011;7749;49.964;7.890;2022-10-31T09:13:13;11.40;;;6.57;;
15295;SDS011;7749;49.964;7.890;2022-10-31T09:15:42;9.50;;;6.43;;
15295;SDS011;7749;49.964;7.890;2022-10-31T09:18:12;10.53;;;6.47;;
15295;SDS011;7749;49.964;7.890;2022-10-31T09:20:42;13.07;;;6.67;;
15295;SDS011;7749;49.964;7.890;2022-10-31T09:23:12;13.23;;;6.17;;
15295;SDS011;7749;49.964;7.890;2022-10-31T09:25:41;11.47;;;6.40;;
15295;SDS011;7749;49.964;7.890;2022-10-31T09:28:17;10.67;;;6.50;;
15295;SDS011;7749;49.964;7.890;2022-10-31T09:30:50;9.60;;;6.10;;
15295;SDS011;7749;49.964;7.890;2022-10-31T09:33:19;12.27;;;6.73;;
15295;SDS011;7749;49.964;7.890;2022-10-31T09:35:48;11.17;;;6.43;;
15295;SDS011;7749;49.964;7.890;2022-10-31T09:38:17;9.17;;;5.67;;
15295;SDS011;7749;49.964;7.890;2022-10-31T09:43:37;9.47;;;6.00;;
15295;SDS011;7749;49.964;7.890;2022-10-31T09:51:42;12.50;;;6.40;;
15295;SDS011;7749;49.964;7.890;2022-10-31T09:54:30;12.13;;;5.73;;
15295;SDS011;7749;49.964;7.890;2022-10-31T09:56:59;9.57;;;5.73;;
15295;SDS011;7749;49.964;7.890;2022-10-31T09:59:28;14.13;;;6.17;;
15295;SDS011;7749;49.964;7.890;2022-10-31T10:04:42;11.03;;;6.00;;
15295;SDS011;7749;49.964;7.890;2022-10-31T10:10:17;10.03;;;6.07;;
15295;SDS011;7749;49.964;7.890;2022-10-31T10:18:53;8.50;;;5.87;;
15295;SDS011;7749;49.964;7.890;2022-10-31T10:21:59;9.32;;;5.80;;
15295;SDS011;7749;49.964;7.890;2022-10-31T10:30:00;10.88;;;6.78;;
15295;SDS011;7749;49.964;7.890;2022-10-31T10:33:02;11.32;;;6.13;;
15295;SDS011;7749;49.964;7.890;2022-10-31T10:35:32;7.25;;;5.63;;
15295;SDS011;7749;49.964;7.890;2022-10-31T10:38:13;10.00;;;7.20;;
15295;SDS011;7749;49.964;7.890;2022-10-31T10:40:46;12.15;;;6.63;;
15295;SDS011;7749;49.964;7.890;2022-10-31T10:46:39;12.27;;;7.25;;
15295;SDS011;7749;49.964;7.890;2022-10-31T10:49:42;10.80;;;7.30;;
15295;SDS011;7749;49.964;7.890;2022-10-31T10:52:27;11.75;;;6.88;;
15295;SDS011;7749;49.964;7.890;2022-10-31T10:55:32;13.25;;;7.25;;
15295;SDS011;7749;49.964;7.890;2022-10-31T10:58:15;13.68;;;8.40;;
15295;SDS011;7749;49.964;7.890;2022-10-31T11:00:44;15.23;;;8.45;;
15295;SDS011;7749;49.964;7.890;2022-10-31T11:03:17;13.02;;;7.93;;
15295;SDS011;7749;49.964;7.890;2022-10-31T11:08:30;15.00;;;8.68;;
15295;SDS011;7749;49.964;7.890;2022-10-31T11:13:35;13.07;;;8.60;;
15295;SDS011;7749;49.964;7.890;2022-10-31T11:18:34;13.52;;;8.25;;
15295;SDS011;7749;49.964;7.890;2022-10-31T11:21:17;14.02;;;8.65;;
15295;SDS011;7749;49.964;7.890;2022-10-31T11:26:38;14.95;;;9.82;;
15295;SDS011;7749;49.964;7.890;2022-10-31T11:29:19;13.73;;;8.70;;
15295;SDS011;7749;49.964;7.890;2022-10-31T11:32:31;14.35;;;8.45;;
15295;SDS011;7749;49.964;7.890;2022-10-31T11:35:27;15.32;;;9.30;;
15295;SDS011;7749;49.964;7.890;2022-10-31T11:38:32;15.00;;;8.60;;
15295;SDS011;7749;49.964;7.890;2022-10-31T11:44:23;16.65;;;11.20;;
15295;SDS011;7749;49.964;7.890;2022-10-31T11:50:58;13.27;;;9.35;;
15295;SDS011;7749;49.964;7.890;2022-10-31T11:54:40;15.68;;;10.02;;
15295;SDS011;7749;49.964;7.890;2022-10-31T12:00:52;10.75;;;9.63;;
15295;SDS011;7749;49.964;7.890;2022-10-31T12:04:14;14.52;;;9.45;;
15295;SDS011;7749;49.964;7.890;2022-10-31T12:07:41;12.68;;;9.25;;
15295;SDS011;7749;49.964;7.890;2022-10-31T12:10:43;14.73;;;9.80;;
15295;SDS011;7749;49.964;7.890;2022-10-31T12:21:04;13.63;;;9.18;;
15295;SDS011;7749;49.964;7.890;2022-10-31T12:44:52;14.85;;;9.85;;
15295;SDS011;7749;49.964;7.890;2022-10-31T12:57:58;18.50;;;10.10;;
15295;SDS011;7749;49.964;7.890;2022-10-31T13:00:46;18.63;;;9.43;;
15295;SDS011;7749;49.964;7.890;2022-10-31T13:04:03;14.75;;;10.02;;
15295;SDS011;7749;49.964;7.890;2022-10-31T13:20:31;17.77;;;10.27;;
15295;SDS011;7749;49.964;7.890;2022-10-31T13:24:12;12.48;;;9.57;;
15295;SDS011;7749;49.964;7.890;2022-10-31T13:30:31;15.90;;;10.55;;
15295;SDS011;7749;49.964;7.890;2022-10-31T13:33:47;18.02;;;10.00;;
15295;SDS011;7749;49.964;7.890;2022-10-31T13:36:26;15.30;;;9.98;;
15295;SDS011;7749;49.964;7.890;2022-10-31T13:39:31;16.55;;;10.35;;
15295;SDS011;7749;49.964;7.890;2022-10-31T13:43:01;17.15;;;9.65;;
15295;SDS011;7749;49.964;7.890;2022-10-31T13:45:58;15.30;;;9.10;;
15295;SDS011;7749;49.964;7.890;2022-10-31T13:52:15;11.77;;;9.70;;
15295;SDS011;7749;49.964;7.890;2022-10-31T13:55:37;13.48;;;9.85;;
15295;SDS011;7749;49.964;7.890;2022-10-31T13:58:37;16.88;;;10.48;;
15295;SDS011;7749;49.964;7.890;2022-10-31T14:01:36;15.13;;;9.73;;
15295;SDS011;7749;49.964;7.890;2022-10-31T14:05:06;18.38;;;10.23;;
15295;SDS011;7749;49.964;7.890;2022-10-31T14:08:26;15.63;;;7.72;;
15295;SDS011;7749;49.964;7.890;2022-10-31T14:14:35;12.13;;;7.45;;
15295;SDS011;7749;49.964;7.890;2022-10-31T14:17:28;14.95;;;8.27;;
15295;SDS011;7749;49.964;7.890;2022-10-31T14:23:44;15.57;;;8.50;;
15295;SDS011;7749;49.964;7.890;2022-10-31T14:33:33;13.80;;;9.10;;
15295;SDS011;7749;49.964;7.890;2022-10-31T14:36:33;12.98;;;9.48;;
15295;SDS011;7749;49.964;7.890;2022-10-31T14:50:57;17.05;;;10.25;;
15295;SDS011;7749;49.964;7.890;2022-10-31T14:53:58;15.30;;;10.02;;
15295;SDS011;7749;49.964;7.890;2022-10-31T14:56:48;15.63;;;10.30;;
15295;SDS011;7749;49.964;7.890;2022-10-31T15:03:39;17.42;;;10.85;;
15295;SDS011;7749;49.964;7.890;2022-10-31T15:06:45;18.35;;;10.68;;
15295;SDS011;7749;49.964;7.890;2022-10-31T15:10:05;17.75;;;11.32;;
15295;SDS011;7749;49.964;7.890;2022-10-31T15:19:40;14.33;;;10.17;;
15295;SDS011;7749;49.964;7.890;2022-10-31T15:22:10;16.88;;;10.85;;
15295;SDS011;7749;49.964;7.890;2022-10-31T15:24:46;15.75;;;10.15;;
15295;SDS011;7749;49.964;7.890;2022-10-31T15:27:18;18.40;;;11.13;;
15295;SDS011;7749;49.964;7.890;2022-10-31T15:34:52;15.55;;;11.15;;
15295;SDS011;7749;49.964;7.890;2022-10-31T15:37:22;15.63;;;10.70;;
15295;SDS011;7749;49.964;7.890;2022-10-31T15:39:52;17.33;;;12.35;;
15295;SDS011;7749;49.964;7.890;2022-10-31T15:42:33;15.55;;;10.35;;
15295;SDS011;7749;49.964;7.890;2022-10-31T15:47:37;18.17;;;9.95;;
15295;SDS011;7749;49.964;7.890;2022-10-31T15:50:19;13.27;;;10.00;;
15295;SDS011;7749;49.964;7.890;2022-10-31T15:52:50;19.13;;;11.77;;
15295;SDS011;7749;49.964;7.890;2022-10-31T15:55:22;17.53;;;12.60;;
15295;SDS011;7749;49.964;7.890;2022-10-31T15:58:00;23.57;;;13.80;;
15295;SDS011;7749;49.964;7.890;2022-10-31T16:00:32;23.63;;;15.73;;
15295;SDS011;7749;49.964;7.890;2022-10-31T16:03:22;17.50;;;12.40;;
15295;SDS011;7749;49.964;7.890;2022-10-31T16:05:53;19.87;;;12.27;;
15295;SDS011;7749;49.964;7.890;2022-10-31T16:10:53;20.27;;;12.70;;
15295;SDS011;7749;49.964;7.890;2022-10-31T16:13:34;20.90;;;12.20;;
15295;SDS011;7749;49.964;7.890;2022-10-31T16:16:23;17.70;;;11.30;;
15295;SDS011;7749;49.964;7.890;2022-10-31T16:19:14;15.47;;;11.20;;
15295;SDS011;7749;49.964;7.890;2022-10-31T16:22:09;20.73;;;11.33;;
15295;SDS011;7749;49.964;7.890;2022-10-31T16:24:51;17.57;;;11.77;;
15295;SDS011;7749;49.964;7.890;2022-10-31T16:27:38;20.37;;;12.83;;
15295;SDS011;7749;49.964;7.890;2022-10-31T16:39:02;22.53;;;13.30;;
15295;SDS011;7749;49.964;7.890;2022-10-31T16:41:54;21.67;;;12.93;;
15295;SDS011;7749;49.964;7.890;2022-10-31T16:44:26;17.90;;;13.10;;
15295;SDS011;7749;49.964;7.890;2022-10-31T16:47:27;21.70;;;12.20;;
15295;SDS011;7749;49.964;7.890;2022-10-31T16:49:54;23.93;;;15.20;;
15295;SDS011;7749;49.964;7.890;2022-10-31T16:52:34;22.50;;;13.50;;
15295;SDS011;7749;49.964;7.890;2022-10-31T16:55:20;16.43;;;13.03;;
15295;SDS011;7749;49.964;7.890;2022-10-31T16:57:51;21.93;;;11.83;;
15295;SDS011;7749;49.964;7.890;2022-10-31T17:00:25;18.90;;;12.13;;
15295;SDS011;7749;49.964;7.890;2022-10-31T17:03:01;18.83;;;12.70;;
15295;SDS011;7749;49.964;7.890;2022-10-31T17:05:33;20.80;;;12.83;;
15295;SDS011;7749;49.964;7.890;2022-10-31T17:08:03;20.43;;;13.07;;
15295;SDS011;7749;49.964;7.890;2022-10-31T17:10:39;21.23;;;14.30;;
15295;SDS011;7749;49.964;7.890;2022-10-31T17:13:13;19.37;;;14.03;;
15295;SDS011;7749;49.964;7.890;2022-10-31T17:15:47;25.13;;;14.63;;
15295;SDS011;7749;49.964;7.890;2022-10-31T17:18:18;20.60;;;15.80;;
15295;SDS011;7749;49.964;7.890;2022-10-31T17:20:54;22.40;;;16.03;;
15295;SDS011;7749;49.964;7.890;2022-10-31T17:23:27;20.27;;;14.83;;
15295;SDS011;7749;49.964;7.890;2022-10-31T17:25:56;20.77;;;15.07;;
15295;SDS011;7749;49.964;7.890;2022-10-31T17:28:24;23.27;;;16.13;;
15295;SDS011;7749;49.964;7.890;2022-10-31T17:30:54;22.10;;;15.60;;
15295;SDS011;7749;49.964;7.890;2022-10-31T17:33:24;27.53;;;17.50;;
15295;SDS011;7749;49.964;7.890;2022-10-31T17:35:54;20.13;;;15.60;;
15295;SDS011;7749;49.964;7.890;2022-10-31T17:38:27;22.00;;;16.80;;
15295;SDS011;7749;49.964;7.890;2022-10-31T17:40:55;20.80;;;14.80;;
15295;SDS011;7749;49.964;7.890;2022-10-31T17:43:23;25.67;;;15.43;;
15295;SDS011;7749;49.964;7.890;2022-10-31T17:45:57;23.83;;;14.80;;
15295;SDS011;7749;49.964;7.890;2022-10-31T17:48:26;20.20;;;14.83;;
15295;SDS011;7749;49.964;7.890;2022-10-31T17:50:58;22.77;;;15.33;;
15295;SDS011;7749;49.964;7.890;2022-10-31T17:53:28;18.27;;;14.63;;
15295;SDS011;7749;49.964;7.890;2022-10-31T17:56:01;21.87;;;14.77;;
15295;SDS011;7749;49.964;7.890;2022-10-31T17:58:31;21.67;;;15.37;;
15295;SDS011;7749;49.964;7.890;2022-10-31T18:01:10;25.67;;;14.93;;
15295;SDS011;7749;49.964;7.890;2022-10-31T18:03:42;21.00;;;15.13;;
15295;SDS011;7749;49.964;7.890;2022-10-31T18:06:10;23.37;;;15.23;;
15295;SDS011;7749;49.964;7.890;2022-10-31T18:08:40;20.63;;;14.07;;
15295;SDS011;7749;49.964;7.890;2022-10-31T18:11:13;22.97;;;16.37;;
15295;SDS011;7749;49.964;7.890;2022-10-31T18:13:46;22.10;;;15.40;;
15295;SDS011;7749;49.964;7.890;2022-10-31T18:16:20;23.77;;;15.93;;
15295;SDS011;7749;49.964;7.890;2022-10-31T18:19:25;22.93;;;15.23;;
15295;SDS011;7749;49.964;7.890;2022-10-31T18:22:25;21.47;;;15.47;;
15295;SDS011;7749;49.964;7.890;2022-10-31T18:25:23;21.97;;;16.37;;
15295;SDS011;7749;49.964;7.890;2022-10-31T18:32:13;24.03;;;16.50;;
15295;SDS011;7749;49.964;7.890;2022-10-31T18:35:18;27.50;;;15.93;;
15295;SDS011;7749;49.964;7.890;2022-10-31T18:38:01;26.60;;;14.97;;
15295;SDS011;7749;49.964;7.890;2022-10-31T18:40:33;20.00;;;14.87;;
15295;SDS011;7749;49.964;7.890;2022-10-31T18:43:08;22.07;;;15.03;;
15295;SDS011;7749;49.964;7.890;2022-10-31T18:45:36;17.63;;;13.20;;
15295;SDS011;7749;49.964;7.890;2022-10-31T18:48:15;19.63;;;12.73;;
15295;SDS011;7749;49.964;7.890;2022-10-31T18:50:43;18.80;;;12.40;;
15295;SDS011;7749;49.964;7.890;2022-10-31T18:53:11;17.57;;;12.63;;
15295;SDS011;7749;49.964;7.890;2022-10-31T18:55:39;19.77;;;12.73;;
15295;SDS011;7749;49.964;7.890;2022-10-31T18:58:15;20.97;;;13.77;;
15295;SDS011;7749;49.964;7.890;2022-10-31T19:00:43;15.73;;;11.87;;
15295;SDS011;7749;49.964;7.890;2022-10-31T19:03:12;19.30;;;12.07;;
15295;SDS011;7749;49.964;7.890;2022-10-31T19:05:41;16.70;;;12.33;;
15295;SDS011;7749;49.964;7.890;2022-10-31T19:08:09;16.63;;;12.17;;
15295;SDS011;7749;49.964;7.890;2022-10-31T19:10:37;19.30;;;13.37;;
15295;SDS011;7749;49.964;7.890;2022-10-31T19:13:06;18.47;;;12.10;;